sensor_id;sensor_type;location;lat;lon;timestamp;P1;durP1;ratioP1;P2;durP2;ratioP2
36923;SDS011;22841;50.252;18.688;2023-04-16T00:00:49;19.17;;;13.50;;
36923;SDS011;22841;50.252;18.688;2023-04-16T00:03:15;21.73;;;13.98;;
36923;SDS011;22841;50.252;18.688;2023-04-16T00:05:41;20.45;;;13.07;;
36923;SDS011;22841;50.252;18.688;2023-04-16T00:08:07;20.88;;;12.90;;
36923;SDS011;22841;50.252;18.688;2023-04-16T00:10:34;20.17;;;13.38;;
36923;SDS011;22841;50.252;18.688;2023-04-16T00:13:00;16.80;;;11.93;;
36923;SDS011;22841;50.252;18.688;2023-04-16T00:15:26;17.88;;;12.38;;
36923;SDS011;22841;50.252;18.688;2023-04-16T00:17:52;19.13;;;12.57;;
36923;SDS011;22841;50.252;18.688;2023-04-16T00:20:18;18.85;;;12.00;;
36923;SDS011;22841;50.252;18.688;2023-04-16T00:22:45;21.83;;;13.80;;
36923;SDS011;22841;50.252;18.688;2023-04-16T00:25:11;22.23;;;14.32;;
36923;SDS011;22841;50.252;18.688;2023-04-16T00:27:38;20.55;;;13.27;;
36923;SDS011;22841;50.252;18.688;2023-04-16T00:30:05;19.75;;;14.00;;
36923;SDS011;22841;50.252;18.688;2023-04-16T00:32:31;18.90;;;13.45;;
36923;SDS011;22841;50.252;18.688;2023-04-16T00:34:57;24.85;;;13.55;;
36923;SDS011;22841;50.252;18.688;2023-04-16T00:37:23;26.10;;;14.60;;
36923;SDS011;22841;50.252;18.688;2023-04-16T00:39:49;39.47;;;19.75;;
36923;SDS011;22841;50.252;18.688;2023-04-16T00:42:15;41.25;;;20.88;;
36923;SDS011;22841;50.252;18.688;2023-04-16T00:44:41;35.67;;;18.98;;
36923;SDS011;22841;50.252;18.688;2023-04-16T00:47:07;27.58;;;17.85;;
36923;SDS011;22841;50.252;18.688;2023-04-16T00:49:34;45.95;;;19.88;;
36923;SDS011;22841;50.252;18.688;2023-04-16T00:52:01;33.38;;;19.33;;
36923;SDS011;22841;50.252;18.688;2023-04-16T00:54:27;31.33;;;17.40;;
36923;SDS011;22841;50.252;18.688;2023-04-16T00:56:54;32.17;;;18.38;;
36923;SDS011;22841;50.252;18.688;2023-04-16T00:59:22;31.92;;;19.23;;
36923;SDS011;22841;50.252;18.688;2023-04-16T01:01:48;26.40;;;15.68;;
36923;SDS011;22841;50.252;18.688;2023-04-16T01:04:14;32.25;;;15.43;;
36923;SDS011;22841;50.252;18.688;2023-04-16T01:06:41;26.70;;;15.63;;
36923;SDS011;22841;50.252;18.688;2023-04-16T01:09:08;33.13;;;17.70;;
36923;SDS011;22841;50.252;18.688;2023-04-16T01:11:36;44.17;;;20.05;;
36923;SDS011;22841;50.252;18.688;2023-04-16T01:14:02;34.58;;;19.45;;
36923;SDS011;22841;50.252;18.688;2023-04-16T01:16:28;50.78;;;21.30;;
36923;SDS011;22841;50.252;18.688;2023-04-16T01:18:55;43.85;;;19.88;;
36923;SDS011;22841;50.252;18.688;2023-04-16T01:21:21;38.83;;;20.02;;
36923;SDS011;22841;50.252;18.688;2023-04-16T01:23:47;45.63;;;18.38;;
36923;SDS011;22841;50.252;18.688;2023-04-16T01:26:13;53.17;;;17.92;;
36923;SDS011;22841;50.252;18.688;2023-04-16T01:28:39;53.60;;;16.67;;
36923;SDS011;22841;50.252;18.688;2023-04-16T01:31:05;39.75;;;16.27;;
36923;SDS011;22841;50.252;18.688;2023-04-16T01:33:32;28.80;;;14.55;;
36923;SDS011;22841;50.252;18.688;2023-04-16T01:35:58;35.92;;;14.63;;
36923;SDS011;22841;50.252;18.688;2023-04-16T01:38:24;39.50;;;14.85;;
36923;SDS011;22841;50.252;18.688;2023-04-16T01:40:54;24.75;;;14.07;;
36923;SDS011;22841;50.252;18.688;2023-04-16T01:43:21;45.08;;;17.08;;
36923;SDS011;22841;50.252;18.688;2023-04-16T01:45:47;73.82;;;17.58;;
36923;SDS011;22841;50.252;18.688;2023-04-16T01:48:13;95.15;;;18.48;;
36923;SDS011;22841;50.252;18.688;2023-04-16T01:50:40;97.65;;;19.85;;
36923;SDS011;22841;50.252;18.688;2023-04-16T01:53:06;84.10;;;20.25;;
36923;SDS011;22841;50.252;18.688;2023-04-16T01:55:34;87.35;;;21.95;;
36923;SDS011;22841;50.252;18.688;2023-04-16T01:58:00;94.07;;;23.17;;
36923;SDS011;22841;50.252;18.688;2023-04-16T02:00:26;116.45;;;25.90;;
36923;SDS011;22841;50.252;18.688;2023-04-16T02:02:52;118.75;;;26.00;;
36923;SDS011;22841;50.252;18.688;2023-04-16T02:05:18;117.90;;;25.55;;
36923;SDS011;22841;50.252;18.688;2023-04-16T02:07:44;99.00;;;24.30;;
36923;SDS011;22841;50.252;18.688;2023-04-16T02:10:10;98.28;;;22.25;;
36923;SDS011;22841;50.252;18.688;2023-04-16T02:12:36;67.80;;;22.95;;
36923;SDS011;22841;50.252;18.688;2023-04-16T02:15:03;72.97;;;22.90;;
36923;SDS011;22841;50.252;18.688;2023-04-16T02:17:29;88.32;;;24.60;;
36923;SDS011;22841;50.252;18.688;2023-04-16T02:19:55;91.38;;;22.52;;
36923;SDS011;22841;50.252;18.688;2023-04-16T02:22:21;50.53;;;19.30;;
36923;SDS011;22841;50.252;18.688;2023-04-16T02:24:47;40.83;;;18.88;;
36923;SDS011;22841;50.252;18.688;2023-04-16T02:27:15;54.15;;;18.48;;
36923;SDS011;22841;50.252;18.688;2023-04-16T02:29:41;52.42;;;16.77;;
36923;SDS011;22841;50.252;18.688;2023-04-16T02:32:07;43.90;;;16.50;;
36923;SDS011;22841;50.252;18.688;2023-04-16T02:34:33;45.90;;;17.02;;
36923;SDS011;22841;50.252;18.688;2023-04-16T02:36:59;36.20;;;16.77;;
36923;SDS011;22841;50.252;18.688;2023-04-16T02:39:25;36.75;;;16.52;;
36923;SDS011;22841;50.252;18.688;2023-04-16T02:41:52;29.73;;;16.73;;
36923;SDS011;22841;50.252;18.688;2023-04-16T02:44:18;51.70;;;16.83;;
36923;SDS011;22841;50.252;18.688;2023-04-16T02:46:44;47.65;;;15.82;;
36923;SDS011;22841;50.252;18.688;2023-04-16T02:49:10;64.50;;;16.98;;
36923;SDS011;22841;50.252;18.688;2023-04-16T02:51:36;76.38;;;17.60;;
36923;SDS011;22841;50.252;18.688;2023-04-16T02:54:02;91.35;;;16.60;;
36923;SDS011;22841;50.252;18.688;2023-04-16T02:56:28;70.70;;;16.90;;
36923;SDS011;22841;50.252;18.688;2023-04-16T02:58:54;65.95;;;17.60;;
36923;SDS011;22841;50.252;18.688;2023-04-16T03:01:20;68.32;;;17.58;;
36923;SDS011;22841;50.252;18.688;2023-04-16T03:03:46;65.15;;;16.40;;
36923;SDS011;22841;50.252;18.688;2023-04-16T03:06:12;76.55;;;17.63;;
36923;SDS011;22841;50.252;18.688;2023-04-16T03:08:39;80.07;;;17.40;;
36923;SDS011;22841;50.252;18.688;2023-04-16T03:11:05;83.90;;;16.27;;
36923;SDS011;22841;50.252;18.688;2023-04-16T03:13:31;85.18;;;16.52;;
36923;SDS011;22841;50.252;18.688;2023-04-16T03:15:57;101.22;;;16.70;;
36923;SDS011;22841;50.252;18.688;2023-04-16T03:18:23;92.43;;;17.17;;
36923;SDS011;22841;50.252;18.688;2023-04-16T03:20:50;47.25;;;15.98;;
36923;SDS011;22841;50.252;18.688;2023-04-16T03:23:17;88.18;;;18.20;;
36923;SDS011;22841;50.252;18.688;2023-04-16T03:25:43;64.72;;;16.00;;
36923;SDS011;22841;50.252;18.688;2023-04-16T03:28:12;52.70;;;14.63;;
36923;SDS011;22841;50.252;18.688;2023-04-16T03:30:39;47.10;;;15.50;;
36923;SDS011;22841;50.252;18.688;2023-04-16T03:33:05;41.50;;;15.07;;
36923;SDS011;22841;50.252;18.688;2023-04-16T03:35:31;52.47;;;15.02;;
36923;SDS011;22841;50.252;18.688;2023-04-16T03:37:57;41.08;;;14.52;;
36923;SDS011;22841;50.252;18.688;2023-04-16T03:40:23;29.00;;;14.38;;
36923;SDS011;22841;50.252;18.688;2023-04-16T03:42:49;30.33;;;13.25;;
36923;SDS011;22841;50.252;18.688;2023-04-16T03:45:15;33.83;;;13.32;;
36923;SDS011;22841;50.252;18.688;2023-04-16T03:47:41;27.40;;;13.52;;
36923;SDS011;22841;50.252;18.688;2023-04-16T03:50:08;26.98;;;12.32;;
36923;SDS011;22841;50.252;18.688;2023-04-16T03:52:34;26.98;;;14.93;;
36923;SDS011;22841;50.252;18.688;2023-04-16T03:55:00;34.70;;;15.70;;
36923;SDS011;22841;50.252;18.688;2023-04-16T03:57:28;35.65;;;17.08;;
36923;SDS011;22841;50.252;18.688;2023-04-16T03:59:54;35.38;;;17.50;;
36923;SDS011;22841;50.252;18.688;2023-04-16T04:02:20;31.83;;;16.08;;
36923;SDS011;22841;50.252;18.688;2023-04-16T04:04:46;30.23;;;17.17;;
36923;SDS011;22841;50.252;18.688;2023-04-16T04:07:12;32.63;;;17.10;;
36923;SDS011;22841;50.252;18.688;2023-04-16T04:09:40;30.20;;;16.42;;
36923;SDS011;22841;50.252;18.688;2023-04-16T04:12:06;23.77;;;15.88;;
36923;SDS011;22841;50.252;18.688;2023-04-16T04:14:32;23.80;;;14.10;;
36923;SDS011;22841;50.252;18.688;2023-04-16T04:16:58;25.98;;;14.82;;
36923;SDS011;22841;50.252;18.688;2023-04-16T04:19:24;24.95;;;15.27;;
36923;SDS011;22841;50.252;18.688;2023-04-16T04:21:50;34.55;;;14.13;;
36923;SDS011;22841;50.252;18.688;2023-04-16T04:24:16;40.22;;;14.63;;
36923;SDS011;22841;50.252;18.688;2023-04-16T04:26:42;24.88;;;14.68;;
36923;SDS011;22841;50.252;18.688;2023-04-16T04:29:08;46.20;;;14.57;;
36923;SDS011;22841;50.252;18.688;2023-04-16T04:31:34;40.85;;;16.67;;
36923;SDS011;22841;50.252;18.688;2023-04-16T04:34:00;116.53;;;20.48;;
36923;SDS011;22841;50.252;18.688;2023-04-16T04:36:26;90.30;;;24.45;;
36923;SDS011;22841;50.252;18.688;2023-04-16T04:38:52;110.32;;;26.23;;
36923;SDS011;22841;50.252;18.688;2023-04-16T04:41:18;86.75;;;24.77;;
36923;SDS011;22841;50.252;18.688;2023-04-16T04:43:45;106.38;;;24.23;;
36923;SDS011;22841;50.252;18.688;2023-04-16T04:46:11;93.20;;;25.65;;
36923;SDS011;22841;50.252;18.688;2023-04-16T04:48:37;76.05;;;24.77;;
36923;SDS011;22841;50.252;18.688;2023-04-16T04:51:03;55.55;;;23.33;;
36923;SDS011;22841;50.252;18.688;2023-04-16T04:53:30;58.63;;;25.67;;
36923;SDS011;22841;50.252;18.688;2023-04-16T04:55:56;82.07;;;27.83;;
36923;SDS011;22841;50.252;18.688;2023-04-16T04:58:22;75.40;;;29.17;;
36923;SDS011;22841;50.252;18.688;2023-04-16T05:00:48;71.22;;;28.35;;
36923;SDS011;22841;50.252;18.688;2023-04-16T05:03:18;55.90;;;27.75;;
36923;SDS011;22841;50.252;18.688;2023-04-16T05:05:44;57.10;;;28.25;;
36923;SDS011;22841;50.252;18.688;2023-04-16T05:08:10;56.67;;;29.25;;
36923;SDS011;22841;50.252;18.688;2023-04-16T05:10:36;56.05;;;27.17;;
36923;SDS011;22841;50.252;18.688;2023-04-16T05:13:03;53.10;;;27.38;;
36923;SDS011;22841;50.252;18.688;2023-04-16T05:15:29;53.20;;;27.13;;
36923;SDS011;22841;50.252;18.688;2023-04-16T05:17:55;48.67;;;25.40;;
36923;SDS011;22841;50.252;18.688;2023-04-16T05:20:21;43.63;;;23.92;;
36923;SDS011;22841;50.252;18.688;2023-04-16T05:22:50;46.63;;;23.45;;
36923;SDS011;22841;50.252;18.688;2023-04-16T05:25:16;38.70;;;22.52;;
36923;SDS011;22841;50.252;18.688;2023-04-16T05:27:42;41.42;;;22.23;;
36923;SDS011;22841;50.252;18.688;2023-04-16T05:30:08;38.10;;;20.77;;
36923;SDS011;22841;50.252;18.688;2023-04-16T05:32:35;38.17;;;21.33;;
36923;SDS011;22841;50.252;18.688;2023-04-16T05:35:03;38.88;;;21.60;;
36923;SDS011;22841;50.252;18.688;2023-04-16T05:37:29;38.28;;;20.75;;
36923;SDS011;22841;50.252;18.688;2023-04-16T05:39:56;34.40;;;21.58;;
36923;SDS011;22841;50.252;18.688;2023-04-16T05:42:22;36.75;;;21.10;;
36923;SDS011;22841;50.252;18.688;2023-04-16T05:44:49;33.78;;;20.40;;
36923;SDS011;22841;50.252;18.688;2023-04-16T05:47:15;35.28;;;20.85;;
36923;SDS011;22841;50.252;18.688;2023-04-16T05:49:41;44.90;;;23.17;;
36923;SDS011;22841;50.252;18.688;2023-04-16T05:52:07;34.85;;;21.13;;
36923;SDS011;22841;50.252;18.688;2023-04-16T05:54:34;28.75;;;18.95;;
36923;SDS011;22841;50.252;18.688;2023-04-16T05:57:00;33.78;;;19.88;;
36923;SDS011;22841;50.252;18.688;2023-04-16T05:59:26;36.67;;;19.85;;
36923;SDS011;22841;50.252;18.688;2023-04-16T06:01:53;36.13;;;20.73;;
36923;SDS011;22841;50.252;18.688;2023-04-16T06:04:19;38.20;;;21.38;;
36923;SDS011;22841;50.252;18.688;2023-04-16T06:06:45;30.33;;;20.20;;
36923;SDS011;22841;50.252;18.688;2023-04-16T06:09:11;30.00;;;19.90;;
36923;SDS011;22841;50.252;18.688;2023-04-16T06:11:37;37.53;;;20.88;;
36923;SDS011;22841;50.252;18.688;2023-04-16T06:14:04;29.25;;;20.23;;
36923;SDS011;22841;50.252;18.688;2023-04-16T06:16:30;31.73;;;19.92;;
36923;SDS011;22841;50.252;18.688;2023-04-16T06:18:56;31.00;;;20.35;;
36923;SDS011;22841;50.252;18.688;2023-04-16T06:21:22;31.23;;;18.95;;
36923;SDS011;22841;50.252;18.688;2023-04-16T06:23:48;34.58;;;19.38;;
36923;SDS011;22841;50.252;18.688;2023-04-16T06:26:14;35.67;;;20.92;;
36923;SDS011;22841;50.252;18.688;2023-04-16T06:28:40;39.35;;;22.20;;
36923;SDS011;22841;50.252;18.688;2023-04-16T06:31:06;33.95;;;21.65;;
36923;SDS011;22841;50.252;18.688;2023-04-16T06:33:32;32.28;;;20.73;;
36923;SDS011;22841;50.252;18.688;2023-04-16T06:35:58;37.15;;;22.25;;
36923;SDS011;22841;50.252;18.688;2023-04-16T06:38:24;41.80;;;23.38;;
36923;SDS011;22841;50.252;18.688;2023-04-16T06:40:50;40.17;;;22.40;;
36923;SDS011;22841;50.252;18.688;2023-04-16T06:43:16;37.90;;;23.83;;
36923;SDS011;22841;50.252;18.688;2023-04-16T06:45:42;35.63;;;22.17;;
36923;SDS011;22841;50.252;18.688;2023-04-16T06:48:08;40.05;;;23.05;;
36923;SDS011;22841;50.252;18.688;2023-04-16T06:50:34;40.05;;;22.60;;
36923;SDS011;22841;50.252;18.688;2023-04-16T06:53:00;37.20;;;23.30;;
36923;SDS011;22841;50.252;18.688;2023-04-16T06:55:27;31.88;;;22.05;;
36923;SDS011;22841;50.252;18.688;2023-04-16T06:57:53;36.70;;;22.75;;
36923;SDS011;22841;50.252;18.688;2023-04-16T07:00:19;33.28;;;22.10;;
36923;SDS011;22841;50.252;18.688;2023-04-16T07:02:45;34.15;;;21.88;;
36923;SDS011;22841;50.252;18.688;2023-04-16T07:05:11;35.10;;;20.85;;
36923;SDS011;22841;50.252;18.688;2023-04-16T07:07:37;32.08;;;20.23;;
36923;SDS011;22841;50.252;18.688;2023-04-16T07:10:03;36.95;;;22.52;;
36923;SDS011;22841;50.252;18.688;2023-04-16T07:12:31;29.25;;;19.95;;
36923;SDS011;22841;50.252;18.688;2023-04-16T07:14:57;34.05;;;19.27;;
36923;SDS011;22841;50.252;18.688;2023-04-16T07:17:23;32.45;;;18.50;;
36923;SDS011;22841;50.252;18.688;2023-04-16T07:19:50;24.80;;;17.15;;
36923;SDS011;22841;50.252;18.688;2023-04-16T07:22:16;22.80;;;16.65;;
36923;SDS011;22841;50.252;18.688;2023-04-16T07:24:42;25.42;;;19.33;;
36923;SDS011;22841;50.252;18.688;2023-04-16T07:27:08;23.10;;;16.50;;
36923;SDS011;22841;50.252;18.688;2023-04-16T07:29:34;24.65;;;17.58;;
36923;SDS011;22841;50.252;18.688;2023-04-16T07:32:00;21.90;;;16.20;;
36923;SDS011;22841;50.252;18.688;2023-04-16T07:34:26;20.77;;;16.23;;
36923;SDS011;22841;50.252;18.688;2023-04-16T07:36:52;16.95;;;11.38;;
36923;SDS011;22841;50.252;18.688;2023-04-16T07:39:18;13.57;;;10.70;;
36923;SDS011;22841;50.252;18.688;2023-04-16T07:41:44;13.18;;;10.50;;
36923;SDS011;22841;50.252;18.688;2023-04-16T07:44:10;13.95;;;9.50;;
36923;SDS011;22841;50.252;18.688;2023-04-16T07:46:36;14.88;;;10.18;;
36923;SDS011;22841;50.252;18.688;2023-04-16T07:49:02;14.00;;;9.18;;
36923;SDS011;22841;50.252;18.688;2023-04-16T07:51:28;14.20;;;9.45;;
36923;SDS011;22841;50.252;18.688;2023-04-16T07:53:55;21.98;;;13.35;;
36923;SDS011;22841;50.252;18.688;2023-04-16T07:56:21;21.52;;;16.27;;
36923;SDS011;22841;50.252;18.688;2023-04-16T07:58:47;18.42;;;14.25;;
36923;SDS011;22841;50.252;18.688;2023-04-16T08:01:13;16.40;;;12.63;;
36923;SDS011;22841;50.252;18.688;2023-04-16T08:03:40;20.98;;;14.73;;
36923;SDS011;22841;50.252;18.688;2023-04-16T08:06:07;19.10;;;13.45;;
36923;SDS011;22841;50.252;18.688;2023-04-16T08:08:33;22.50;;;14.45;;
36923;SDS011;22841;50.252;18.688;2023-04-16T08:10:59;21.10;;;16.15;;
36923;SDS011;22841;50.252;18.688;2023-04-16T08:13:25;16.25;;;13.02;;
36923;SDS011;22841;50.252;18.688;2023-04-16T08:15:51;17.45;;;12.38;;
36923;SDS011;22841;50.252;18.688;2023-04-16T08:18:17;17.75;;;11.10;;
36923;SDS011;22841;50.252;18.688;2023-04-16T08:20:43;13.15;;;9.60;;
36923;SDS011;22841;50.252;18.688;2023-04-16T08:23:10;13.40;;;9.73;;
36923;SDS011;22841;50.252;18.688;2023-04-16T08:25:36;16.52;;;11.50;;
36923;SDS011;22841;50.252;18.688;2023-04-16T08:28:02;19.92;;;12.52;;
36923;SDS011;22841;50.252;18.688;2023-04-16T08:30:28;15.20;;;10.05;;
36923;SDS011;22841;50.252;18.688;2023-04-16T08:32:54;13.63;;;8.00;;
36923;SDS011;22841;50.252;18.688;2023-04-16T08:35:20;9.55;;;7.93;;
36923;SDS011;22841;50.252;18.688;2023-04-16T08:37:46;9.02;;;7.25;;
36923;SDS011;22841;50.252;18.688;2023-04-16T08:40:12;9.57;;;7.53;;
36923;SDS011;22841;50.252;18.688;2023-04-16T08:42:39;12.80;;;8.20;;
36923;SDS011;22841;50.252;18.688;2023-04-16T08:45:17;11.77;;;8.80;;
36923;SDS011;22841;50.252;18.688;2023-04-16T08:47:44;13.13;;;9.15;;
36923;SDS011;22841;50.252;18.688;2023-04-16T08:50:15;13.93;;;8.90;;
36923;SDS011;22841;50.252;18.688;2023-04-16T08:52:49;10.20;;;7.40;;
36923;SDS011;22841;50.252;18.688;2023-04-16T08:55:30;17.02;;;11.57;;
36923;SDS011;22841;50.252;18.688;2023-04-16T08:58:27;9.68;;;8.52;;
36923;SDS011;22841;50.252;18.688;2023-04-16T09:00:56;8.70;;;7.00;;
36923;SDS011;22841;50.252;18.688;2023-04-16T09:03:22;7.88;;;6.45;;
36923;SDS011;22841;50.252;18.688;2023-04-16T09:05:48;7.10;;;5.78;;
36923;SDS011;22841;50.252;18.688;2023-04-16T09:08:15;8.68;;;5.85;;
36923;SDS011;22841;50.252;18.688;2023-04-16T09:10:42;7.38;;;6.07;;
36923;SDS011;22841;50.252;18.688;2023-04-16T09:13:09;6.88;;;6.18;;
36923;SDS011;22841;50.252;18.688;2023-04-16T09:15:36;8.38;;;6.63;;
36923;SDS011;22841;50.252;18.688;2023-04-16T09:18:03;6.30;;;5.70;;
36923;SDS011;22841;50.252;18.688;2023-04-16T09:20:29;13.38;;;7.97;;
36923;SDS011;22841;50.252;18.688;2023-04-16T09:22:55;26.55;;;13.13;;
36923;SDS011;22841;50.252;18.688;2023-04-16T09:25:21;12.20;;;6.97;;
36923;SDS011;22841;50.252;18.688;2023-04-16T09:27:49;14.40;;;6.90;;
36923;SDS011;22841;50.252;18.688;2023-04-16T09:30:22;9.05;;;7.07;;
36923;SDS011;22841;50.252;18.688;2023-04-16T09:32:50;10.27;;;6.85;;
36923;SDS011;22841;50.252;18.688;2023-04-16T09:35:17;7.65;;;6.65;;
36923;SDS011;22841;50.252;18.688;2023-04-16T09:37:53;9.27;;;6.88;;
36923;SDS011;22841;50.252;18.688;2023-04-16T09:40:24;10.23;;;7.65;;
36923;SDS011;22841;50.252;18.688;2023-04-16T09:42:53;8.32;;;7.38;;
36923;SDS011;22841;50.252;18.688;2023-04-16T09:45:22;7.30;;;6.38;;
36923;SDS011;22841;50.252;18.688;2023-04-16T09:47:48;9.70;;;6.05;;
36923;SDS011;22841;50.252;18.688;2023-04-16T09:50:15;10.02;;;7.22;;
36923;SDS011;22841;50.252;18.688;2023-04-16T09:52:42;8.73;;;5.85;;
36923;SDS011;22841;50.252;18.688;2023-04-16T09:55:10;7.75;;;5.00;;
36923;SDS011;22841;50.252;18.688;2023-04-16T09:57:37;7.65;;;5.97;;
36923;SDS011;22841;50.252;18.688;2023-04-16T10:00:04;8.35;;;6.28;;
36923;SDS011;22841;50.252;18.688;2023-04-16T10:02:32;7.97;;;5.50;;
36923;SDS011;22841;50.252;18.688;2023-04-16T10:04:59;11.02;;;6.70;;
36923;SDS011;22841;50.252;18.688;2023-04-16T10:07:28;11.68;;;6.47;;
36923;SDS011;22841;50.252;18.688;2023-04-16T10:09:57;9.50;;;7.70;;
36923;SDS011;22841;50.252;18.688;2023-04-16T10:12:23;12.80;;;8.55;;
36923;SDS011;22841;50.252;18.688;2023-04-16T10:14:49;10.00;;;7.50;;
36923;SDS011;22841;50.252;18.688;2023-04-16T10:17:15;11.02;;;7.75;;
36923;SDS011;22841;50.252;18.688;2023-04-16T10:19:41;10.25;;;7.50;;
36923;SDS011;22841;50.252;18.688;2023-04-16T10:22:08;9.80;;;7.60;;
36923;SDS011;22841;50.252;18.688;2023-04-16T10:24:35;11.40;;;8.55;;
36923;SDS011;22841;50.252;18.688;2023-04-16T10:27:01;11.95;;;8.27;;
36923;SDS011;22841;50.252;18.688;2023-04-16T10:29:28;12.00;;;8.65;;
36923;SDS011;22841;50.252;18.688;2023-04-16T10:31:56;10.93;;;6.97;;
36923;SDS011;22841;50.252;18.688;2023-04-16T10:34:23;8.40;;;6.55;;
36923;SDS011;22841;50.252;18.688;2023-04-16T10:36:50;7.97;;;6.18;;
36923;SDS011;22841;50.252;18.688;2023-04-16T10:39:19;14.88;;;7.28;;
36923;SDS011;22841;50.252;18.688;2023-04-16T10:41:47;10.93;;;7.40;;
36923;SDS011;22841;50.252;18.688;2023-04-16T10:44:15;9.48;;;7.00;;
36923;SDS011;22841;50.252;18.688;2023-04-16T10:46:43;7.50;;;6.70;;
36923;SDS011;22841;50.252;18.688;2023-04-16T10:49:14;8.65;;;6.65;;
36923;SDS011;22841;50.252;18.688;2023-04-16T10:51:51;9.65;;;7.07;;
36923;SDS011;22841;50.252;18.688;2023-04-16T10:54:20;10.98;;;6.47;;
36923;SDS011;22841;50.252;18.688;2023-04-16T10:59:20;10.93;;;7.32;;
36923;SDS011;22841;50.252;18.688;2023-04-16T11:01:51;9.18;;;6.45;;
36923;SDS011;22841;50.252;18.688;2023-04-16T11:07:01;9.65;;;7.03;;
36923;SDS011;22841;50.252;18.688;2023-04-16T11:12:17;5.55;;;4.97;;
36923;SDS011;22841;50.252;18.688;2023-04-16T11:14:58;6.50;;;5.22;;
36923;SDS011;22841;50.252;18.688;2023-04-16T11:17:59;7.35;;;4.72;;
36923;SDS011;22841;50.252;18.688;2023-04-16T11:20:25;6.35;;;4.93;;
36923;SDS011;22841;50.252;18.688;2023-04-16T11:22:53;6.50;;;5.30;;
36923;SDS011;22841;50.252;18.688;2023-04-16T11:25:21;8.43;;;6.03;;
36923;SDS011;22841;50.252;18.688;2023-04-16T11:27:53;4.68;;;4.15;;
36923;SDS011;22841;50.252;18.688;2023-04-16T11:30:35;7.10;;;5.15;;
36923;SDS011;22841;50.252;18.688;2023-04-16T11:33:02;6.05;;;5.45;;
36923;SDS011;22841;50.252;18.688;2023-04-16T11:35:28;7.88;;;5.43;;
36923;SDS011;22841;50.252;18.688;2023-04-16T11:37:55;7.13;;;4.85;;
36923;SDS011;22841;50.252;18.688;2023-04-16T11:40:22;6.72;;;4.55;;
36923;SDS011;22841;50.252;18.688;2023-04-16T11:42:48;5.35;;;4.80;;
36923;SDS011;22841;50.252;18.688;2023-04-16T11:45:15;6.05;;;4.50;;
36923;SDS011;22841;50.252;18.688;2023-04-16T11:47:50;8.00;;;6.13;;
36923;SDS011;22841;50.252;18.688;2023-04-16T11:50:28;14.50;;;7.97;;
36923;SDS011;22841;50.252;18.688;2023-04-16T11:52:55;9.43;;;5.85;;
36923;SDS011;22841;50.252;18.688;2023-04-16T11:55:22;10.68;;;5.85;;
36923;SDS011;22841;50.252;18.688;2023-04-16T11:57:49;8.52;;;5.90;;
36923;SDS011;22841;50.252;18.688;2023-04-16T12:00:15;12.90;;;8.43;;
36923;SDS011;22841;50.252;18.688;2023-04-16T12:02:47;16.30;;;9.25;;
36923;SDS011;22841;50.252;18.688;2023-04-16T12:05:31;10.73;;;6.63;;
36923;SDS011;22841;50.252;18.688;2023-04-16T12:08:09;7.45;;;6.45;;
36923;SDS011;22841;50.252;18.688;2023-04-16T12:10:57;12.23;;;6.57;;
36923;SDS011;22841;50.252;18.688;2023-04-16T12:13:24;24.15;;;12.27;;
36923;SDS011;22841;50.252;18.688;2023-04-16T12:15:51;13.50;;;8.30;;
36923;SDS011;22841;50.252;18.688;2023-04-16T12:18:18;18.02;;;10.80;;
36923;SDS011;22841;50.252;18.688;2023-04-16T12:20:47;10.35;;;6.40;;
36923;SDS011;22841;50.252;18.688;2023-04-16T12:23:21;8.25;;;6.13;;
36923;SDS011;22841;50.252;18.688;2023-04-16T12:25:52;10.40;;;6.38;;
36923;SDS011;22841;50.252;18.688;2023-04-16T12:28:32;5.88;;;5.10;;
36923;SDS011;22841;50.252;18.688;2023-04-16T12:30:59;7.32;;;6.25;;
36923;SDS011;22841;50.252;18.688;2023-04-16T12:33:26;8.65;;;5.10;;
36923;SDS011;22841;50.252;18.688;2023-04-16T12:35:53;7.75;;;6.43;;
36923;SDS011;22841;50.252;18.688;2023-04-16T12:38:19;9.68;;;7.93;;
36923;SDS011;22841;50.252;18.688;2023-04-16T12:40:45;8.60;;;5.43;;
36923;SDS011;22841;50.252;18.688;2023-04-16T12:43:11;5.80;;;5.20;;
36923;SDS011;22841;50.252;18.688;2023-04-16T12:45:38;7.80;;;5.35;;
36923;SDS011;22841;50.252;18.688;2023-04-16T12:48:05;7.50;;;5.57;;
36923;SDS011;22841;50.252;18.688;2023-04-16T12:50:31;7.78;;;5.60;;
36923;SDS011;22841;50.252;18.688;2023-04-16T12:52:57;7.40;;;5.60;;
36923;SDS011;22841;50.252;18.688;2023-04-16T12:55:24;7.15;;;5.90;;
36923;SDS011;22841;50.252;18.688;2023-04-16T12:57:50;6.47;;;4.70;;
36923;SDS011;22841;50.252;18.688;2023-04-16T13:00:19;7.30;;;4.95;;
36923;SDS011;22841;50.252;18.688;2023-04-16T13:02:45;9.77;;;5.35;;
36923;SDS011;22841;50.252;18.688;2023-04-16T13:05:11;6.88;;;4.90;;
36923;SDS011;22841;50.252;18.688;2023-04-16T13:07:40;5.95;;;5.07;;
36923;SDS011;22841;50.252;18.688;2023-04-16T13:10:07;6.88;;;5.53;;
36923;SDS011;22841;50.252;18.688;2023-04-16T13:12:33;5.38;;;4.88;;
36923;SDS011;22841;50.252;18.688;2023-04-16T13:15:00;6.15;;;5.55;;
36923;SDS011;22841;50.252;18.688;2023-04-16T13:17:26;5.95;;;4.82;;
36923;SDS011;22841;50.252;18.688;2023-04-16T13:19:52;8.32;;;5.13;;
36923;SDS011;22841;50.252;18.688;2023-04-16T13:22:18;5.72;;;5.13;;
36923;SDS011;22841;50.252;18.688;2023-04-16T13:24:44;5.60;;;5.07;;
36923;SDS011;22841;50.252;18.688;2023-04-16T13:27:10;9.25;;;6.85;;
36923;SDS011;22841;50.252;18.688;2023-04-16T13:29:37;7.63;;;6.78;;
36923;SDS011;22841;50.252;18.688;2023-04-16T13:32:03;8.30;;;5.28;;
36923;SDS011;22841;50.252;18.688;2023-04-16T13:34:30;7.82;;;5.90;;
36923;SDS011;22841;50.252;18.688;2023-04-16T13:36:57;10.25;;;6.00;;
36923;SDS011;22841;50.252;18.688;2023-04-16T13:39:23;7.15;;;6.13;;
36923;SDS011;22841;50.252;18.688;2023-04-16T13:41:49;7.10;;;5.72;;
36923;SDS011;22841;50.252;18.688;2023-04-16T13:44:15;6.55;;;5.53;;
36923;SDS011;22841;50.252;18.688;2023-04-16T13:46:41;18.70;;;10.95;;
36923;SDS011;22841;50.252;18.688;2023-04-16T13:49:12;11.52;;;8.00;;
36923;SDS011;22841;50.252;18.688;2023-04-16T13:51:38;12.13;;;6.95;;
36923;SDS011;22841;50.252;18.688;2023-04-16T13:54:04;8.18;;;5.68;;
36923;SDS011;22841;50.252;18.688;2023-04-16T13:56:30;9.63;;;6.90;;
36923;SDS011;22841;50.252;18.688;2023-04-16T13:58:56;6.88;;;6.15;;
36923;SDS011;22841;50.252;18.688;2023-04-16T14:01:22;8.93;;;6.43;;
36923;SDS011;22841;50.252;18.688;2023-04-16T14:03:48;8.15;;;5.90;;
36923;SDS011;22841;50.252;18.688;2023-04-16T14:06:16;14.88;;;8.32;;
36923;SDS011;22841;50.252;18.688;2023-04-16T14:08:42;10.00;;;6.75;;
36923;SDS011;22841;50.252;18.688;2023-04-16T14:11:10;6.82;;;5.43;;
36923;SDS011;22841;50.252;18.688;2023-04-16T14:13:36;7.65;;;5.30;;
36923;SDS011;22841;50.252;18.688;2023-04-16T14:16:02;8.75;;;6.32;;
36923;SDS011;22841;50.252;18.688;2023-04-16T14:18:28;7.93;;;6.03;;
36923;SDS011;22841;50.252;18.688;2023-04-16T14:20:54;8.13;;;5.55;;
36923;SDS011;22841;50.252;18.688;2023-04-16T14:23:20;6.97;;;5.50;;